sensor_id;sensor_type;location;lat;lon;timestamp;pressure;altitude;pressure_sealevel;temperature
15144;BMP180;7672;50.834;6.286;2023-03-19T00:00:54;99291.59;;;14.72
15144;BMP180;7672;50.834;6.286;2023-03-19T00:03:21;99286.63;;;14.67
15144;BMP180;7672;50.834;6.286;2023-03-19T00:05:53;99288.34;;;14.65
15144;BMP180;7672;50.834;6.286;2023-03-19T00:08:24;99296.88;;;14.61
15144;BMP180;7672;50.834;6.286;2023-03-19T00:10:52;99293.59;;;14.56
15144;BMP180;7672;50.834;6.286;2023-03-19T00:13:22;99288.59;;;14.52
15144;BMP180;7672;50.834;6.286;2023-03-19T00:15:49;99291.19;;;14.49
15144;BMP180;7672;50.834;6.286;2023-03-19T00:18:16;99287.06;;;14.43
15144;BMP180;7672;50.834;6.286;2023-03-19T00:20:44;99287.13;;;14.40
15144;BMP180;7672;50.834;6.286;2023-03-19T00:23:11;99282.13;;;14.34
15144;BMP180;7672;50.834;6.286;2023-03-19T00:25:39;99279.63;;;14.31
15144;BMP180;7672;50.834;6.286;2023-03-19T00:28:06;99279.78;;;14.24
15144;BMP180;7672;50.834;6.286;2023-03-19T00:30:42;99284.94;;;14.20
15144;BMP180;7672;50.834;6.286;2023-03-19T00:33:11;99285.91;;;14.13
15144;BMP180;7672;50.834;6.286;2023-03-19T00:35:39;99282.53;;;14.11
15144;BMP180;7672;50.834;6.286;2023-03-19T00:38:07;99283.44;;;14.07
15144;BMP180;7672;50.834;6.286;2023-03-19T00:40:34;99279.25;;;14.03
15144;BMP180;7672;50.834;6.286;2023-03-19T00:43:05;99275.09;;;13.99
15144;BMP180;7672;50.834;6.286;2023-03-19T00:45:33;99274.28;;;13.95
15144;BMP180;7672;50.834;6.286;2023-03-19T00:48:02;99280.28;;;13.93
15144;BMP180;7672;50.834;6.286;2023-03-19T00:50:29;99280.31;;;13.88
15144;BMP180;7672;50.834;6.286;2023-03-19T00:52:56;99283.78;;;13.84
15144;BMP180;7672;50.834;6.286;2023-03-19T00:55:23;99286.38;;;13.81
15144;BMP180;7672;50.834;6.286;2023-03-19T00:57:51;99285.53;;;13.79
15144;BMP180;7672;50.834;6.286;2023-03-19T01:00:22;99278.81;;;13.77
15144;BMP180;7672;50.834;6.286;2023-03-19T01:02:49;99283.91;;;13.77
15144;BMP180;7672;50.834;6.286;2023-03-19T01:05:17;99283.06;;;13.76
15144;BMP180;7672;50.834;6.286;2023-03-19T01:07:44;99288.13;;;13.78
15144;BMP180;7672;50.834;6.286;2023-03-19T01:10:12;99293.19;;;13.78
15144;BMP180;7672;50.834;6.286;2023-03-19T01:12:39;99288.91;;;13.81
15144;BMP180;7672;50.834;6.286;2023-03-19T01:15:07;99290.59;;;13.82
15144;BMP180;7672;50.834;6.286;2023-03-19T01:17:35;99288.03;;;13.84
15144;BMP180;7672;50.834;6.286;2023-03-19T01:20:05;99292.19;;;13.88
15144;BMP180;7672;50.834;6.286;2023-03-19T01:22:39;99291.34;;;13.89
15144;BMP180;7672;50.834;6.286;2023-03-19T01:25:12;99294.69;;;13.91
15144;BMP180;7672;50.834;6.286;2023-03-19T01:27:40;99287.88;;;13.93
15144;BMP180;7672;50.834;6.286;2023-03-19T01:30:08;99287.81;;;13.97
15144;BMP180;7672;50.834;6.286;2023-03-19T01:32:36;99286.94;;;13.98
15144;BMP180;7672;50.834;6.286;2023-03-19T01:35:10;99289.44;;;14.00
15144;BMP180;7672;50.834;6.286;2023-03-19T01:37:37;99286.06;;;14.01
15144;BMP180;7672;50.834;6.286;2023-03-19T01:40:11;99283.44;;;14.04
15144;BMP180;7672;50.834;6.286;2023-03-19T01:45:45;99272.41;;;14.06
15144;BMP180;7672;50.834;6.286;2023-03-19T01:48:45;99280.84;;;14.10
15144;BMP180;7672;50.834;6.286;2023-03-19T01:51:18;99282.50;;;14.12
15144;BMP180;7672;50.834;6.286;2023-03-19T01:53:53;99274.84;;;14.15
15144;BMP180;7672;50.834;6.286;2023-03-19T01:56:31;99279.84;;;14.20
15144;BMP180;7672;50.834;6.286;2023-03-19T01:59:34;99279.00;;;14.21
15144;BMP180;7672;50.834;6.286;2023-03-19T02:05:07;99277.16;;;14.28
15144;BMP180;7672;50.834;6.286;2023-03-19T02:07:40;99274.53;;;14.31
15144;BMP180;7672;50.834;6.286;2023-03-19T02:10:13;99268.56;;;14.35
15144;BMP180;7672;50.834;6.286;2023-03-19T02:12:42;99275.25;;;14.39
15144;BMP180;7672;50.834;6.286;2023-03-19T02:15:11;99266.72;;;14.43
15144;BMP180;7672;50.834;6.286;2023-03-19T02:17:40;99273.44;;;14.46
15144;BMP180;7672;50.834;6.286;2023-03-19T02:20:36;99276.78;;;14.49
15144;BMP180;7672;50.834;6.286;2023-03-19T02:26:11;99269.91;;;14.53
15144;BMP180;7672;50.834;6.286;2023-03-19T02:28:47;99270.69;;;14.56
15144;BMP180;7672;50.834;6.286;2023-03-19T02:31:15;99265.59;;;14.58
15144;BMP180;7672;50.834;6.286;2023-03-19T02:33:43;99261.34;;;14.58
15144;BMP180;7672;50.834;6.286;2023-03-19T02:36:20;99258.78;;;14.60
15144;BMP180;7672;50.834;6.286;2023-03-19T02:38:50;99257.94;;;14.58
15144;BMP180;7672;50.834;6.286;2023-03-19T02:41:20;99252.09;;;14.54
15144;BMP180;7672;50.834;6.286;2023-03-19T02:43:48;99257.22;;;14.51
15144;BMP180;7672;50.834;6.286;2023-03-19T02:46:20;99264.06;;;14.48
15144;BMP180;7672;50.834;6.286;2023-03-19T02:48:51;99263.31;;;14.44
15144;BMP180;7672;50.834;6.286;2023-03-19T02:51:19;99267.63;;;14.39
15144;BMP180;7672;50.834;6.286;2023-03-19T02:53:54;99267.66;;;14.38
15144;BMP180;7672;50.834;6.286;2023-03-19T02:56:22;99273.66;;;14.35
15144;BMP180;7672;50.834;6.286;2023-03-19T02:58:51;99278.72;;;14.34
15144;BMP180;7672;50.834;6.286;2023-03-19T03:01:19;99266.91;;;14.31
15144;BMP180;7672;50.834;6.286;2023-03-19T03:03:46;99277.97;;;14.30
15144;BMP180;7672;50.834;6.286;2023-03-19T03:06:14;99271.22;;;14.28
15144;BMP180;7672;50.834;6.286;2023-03-19T03:08:42;99266.22;;;14.23
15144;BMP180;7672;50.834;6.286;2023-03-19T03:11:09;99270.50;;;14.22
15144;BMP180;7672;50.834;6.286;2023-03-19T03:13:36;99277.34;;;14.18
15144;BMP180;7672;50.834;6.286;2023-03-19T03:16:04;99280.75;;;14.16
15144;BMP180;7672;50.834;6.286;2023-03-19T03:18:31;99285.91;;;14.13
15144;BMP180;7672;50.834;6.286;2023-03-19T03:20:58;99281.72;;;14.09
15144;BMP180;7672;50.834;6.286;2023-03-19T03:23:25;99283.44;;;14.07
15144;BMP180;7672;50.834;6.286;2023-03-19T03:25:53;99283.44;;;14.04
15144;BMP180;7672;50.834;6.286;2023-03-19T03:28:20;99278.47;;;13.99
15144;BMP180;7672;50.834;6.286;2023-03-19T03:30:46;99292.88;;;13.99
15144;BMP180;7672;50.834;6.286;2023-03-19T03:33:14;99295.44;;;13.96
15144;BMP180;7672;50.834;6.286;2023-03-19T03:35:42;99286.19;;;13.92
15144;BMP180;7672;50.834;6.286;2023-03-19T03:38:09;99283.66;;;13.92
15144;BMP180;7672;50.834;6.286;2023-03-19T03:40:36;99287.91;;;13.91
15144;BMP180;7672;50.834;6.286;2023-03-19T03:43:03;99291.28;;;13.92
15144;BMP180;7672;50.834;6.286;2023-03-19T03:45:30;99281.13;;;13.92
15144;BMP180;7672;50.834;6.286;2023-03-19T03:47:58;99282.78;;;13.94
15144;BMP180;7672;50.834;6.286;2023-03-19T03:50:24;99281.84;;;13.98
15144;BMP180;7672;50.834;6.286;2023-03-19T03:52:52;99282.66;;;14.02
15144;BMP180;7672;50.834;6.286;2023-03-19T03:55:18;99287.72;;;14.03
15144;BMP180;7672;50.834;6.286;2023-03-19T03:57:45;99288.50;;;14.07
15144;BMP180;7672;50.834;6.286;2023-03-19T04:00:12;99290.16;;;14.11
15144;BMP180;7672;50.834;6.286;2023-03-19T04:02:39;99287.56;;;14.14
15144;BMP180;7672;50.834;6.286;2023-03-19T04:05:07;99281.63;;;14.15
15144;BMP180;7672;50.834;6.286;2023-03-19T04:07:34;99298.56;;;14.16
15144;BMP180;7672;50.834;6.286;2023-03-19T04:10:03;99295.19;;;14.15
15144;BMP180;7672;50.834;6.286;2023-03-19T04:12:31;99300.22;;;14.17
15144;BMP180;7672;50.834;6.286;2023-03-19T04:14:58;99301.91;;;14.16
15144;BMP180;7672;50.834;6.286;2023-03-19T04:17:25;99295.19;;;14.15
15144;BMP180;7672;50.834;6.286;2023-03-19T04:19:51;99306.22;;;14.14
15144;BMP180;7672;50.834;6.286;2023-03-19T04:22:18;99311.31;;;14.13
15144;BMP180;7672;50.834;6.286;2023-03-19T04:24:45;99309.56;;;14.15
15144;BMP180;7672;50.834;6.286;2023-03-19T04:27:12;99308.75;;;14.14
15144;BMP180;7672;50.834;6.286;2023-03-19T04:29:39;99305.38;;;14.12
15144;BMP180;7672;50.834;6.286;2023-03-19T04:32:06;99311.31;;;14.13
15144;BMP180;7672;50.834;6.286;2023-03-19T04:34:33;99311.31;;;14.13
15144;BMP180;7672;50.834;6.286;2023-03-19T04:37:00;99322.31;;;14.13
15144;BMP180;7672;50.834;6.286;2023-03-19T04:39:27;99318.91;;;14.14
15144;BMP180;7672;50.834;6.286;2023-03-19T04:41:54;99314.69;;;14.13
15144;BMP180;7672;50.834;6.286;2023-03-19T04:44:22;99317.22;;;14.13
15144;BMP180;7672;50.834;6.286;2023-03-19T04:46:49;99318.06;;;14.14
15144;BMP180;7672;50.834;6.286;2023-03-19T04:49:16;99314.69;;;14.13
15144;BMP180;7672;50.834;6.286;2023-03-19T04:51:42;99323.97;;;14.16
15144;BMP180;7672;50.834;6.286;2023-03-19T04:54:09;99320.56;;;14.17
15144;BMP180;7672;50.834;6.286;2023-03-19T04:56:36;99322.22;;;14.18
15144;BMP180;7672;50.834;6.286;2023-03-19T04:59:03;99326.44;;;14.19
15144;BMP180;7672;50.834;6.286;2023-03-19T05:01:30;99327.25;;;14.22
15144;BMP180;7672;50.834;6.286;2023-03-19T05:03:57;99333.94;;;14.26
15144;BMP180;7672;50.834;6.286;2023-03-19T05:06:24;99328.84;;;14.29
15144;BMP180;7672;50.834;6.286;2023-03-19T05:08:52;99336.38;;;14.33
15144;BMP180;7672;50.834;6.286;2023-03-19T05:11:19;99335.50;;;14.34
15144;BMP180;7672;50.834;6.286;2023-03-19T05:13:46;99337.97;;;14.39
15144;BMP180;7672;50.834;6.286;2023-03-19T05:16:13;99340.47;;;14.42
15144;BMP180;7672;50.834;6.286;2023-03-19T05:18:40;99341.31;;;14.42
15144;BMP180;7672;50.834;6.286;2023-03-19T05:21:10;99345.50;;;14.45
15144;BMP180;7672;50.834;6.286;2023-03-19T05:23:38;99345.44;;;14.48
15144;BMP180;7672;50.834;6.286;2023-03-19T05:26:06;99342.06;;;14.47
15144;BMP180;7672;50.834;6.286;2023-03-19T05:28:33;99349.66;;;14.49
15144;BMP180;7672;50.834;6.286;2023-03-19T05:31:00;99349.63;;;14.50
15144;BMP180;7672;50.834;6.286;2023-03-19T05:33:27;99350.47;;;14.52
15144;BMP180;7672;50.834;6.286;2023-03-19T05:35:53;99353.00;;;14.52
15144;BMP180;7672;50.834;6.286;2023-03-19T05:38:23;99354.63;;;14.56
15144;BMP180;7672;50.834;6.286;2023-03-19T05:40:51;99351.22;;;14.57
15144;BMP180;7672;50.834;6.286;2023-03-19T05:43:18;99352.94;;;14.57
15144;BMP180;7672;50.834;6.286;2023-03-19T05:45:50;99355.47;;;14.57
15144;BMP180;7672;50.834;6.286;2023-03-19T05:48:19;99361.34;;;14.59
15144;BMP180;7672;50.834;6.286;2023-03-19T05:50:48;99368.97;;;14.60
15144;BMP180;7672;50.834;6.286;2023-03-19T05:53:16;99364.72;;;14.59
15144;BMP180;7672;50.834;6.286;2023-03-19T05:55:42;99371.47;;;14.62
15144;BMP180;7672;50.834;6.286;2023-03-19T05:58:09;99372.31;;;14.62
15144;BMP180;7672;50.834;6.286;2023-03-19T06:00:36;99370.56;;;14.64
15144;BMP180;7672;50.834;6.286;2023-03-19T06:03:03;99362.94;;;14.66
15144;BMP180;7672;50.834;6.286;2023-03-19T06:05:31;99363.78;;;14.66
15144;BMP180;7672;50.834;6.286;2023-03-19T06:07:58;99360.38;;;14.67
15144;BMP180;7672;50.834;6.286;2023-03-19T06:10:25;99365.47;;;14.67
15144;BMP180;7672;50.834;6.286;2023-03-19T06:12:52;99368.78;;;14.69
15144;BMP180;7672;50.834;6.286;2023-03-19T06:15:19;99374.75;;;14.70
15144;BMP180;7672;50.834;6.286;2023-03-19T06:17:46;99371.31;;;14.71
15144;BMP180;7672;50.834;6.286;2023-03-19T06:20:14;99374.69;;;14.73
15144;BMP180;7672;50.834;6.286;2023-03-19T06:22:41;99378.00;;;14.76
15144;BMP180;7672;50.834;6.286;2023-03-19T06:25:14;99378.81;;;14.80
15144;BMP180;7672;50.834;6.286;2023-03-19T06:27:41;99384.72;;;14.80
15144;BMP180;7672;50.834;6.286;2023-03-19T06:30:10;99384.66;;;14.83
15144;BMP180;7672;50.834;6.286;2023-03-19T06:32:40;99384.66;;;14.83
15144;BMP180;7672;50.834;6.286;2023-03-19T06:35:08;99383.72;;;14.87
15144;BMP180;7672;50.834;6.286;2023-03-19T06:37:36;99383.69;;;14.90
15144;BMP180;7672;50.834;6.286;2023-03-19T06:40:04;99387.03;;;14.92
15144;BMP180;7672;50.834;6.286;2023-03-19T06:42:31;99382.78;;;14.94
15144;BMP180;7672;50.834;6.286;2023-03-19T06:44:58;99384.41;;;14.96
15144;BMP180;7672;50.834;6.286;2023-03-19T06:47:25;99389.41;;;15.02
15144;BMP180;7672;50.834;6.286;2023-03-19T06:49:53;99391.00;;;15.08
15144;BMP180;7672;50.834;6.286;2023-03-19T06:52:20;99389.25;;;15.11
15144;BMP180;7672;50.834;6.286;2023-03-19T06:54:46;99393.31;;;15.21
15144;BMP180;7672;50.834;6.286;2023-03-19T06:57:13;99401.53;;;15.35
15144;BMP180;7672;50.834;6.286;2023-03-19T06:59:40;99410.56;;;15.49
15144;BMP180;7672;50.834;6.286;2023-03-19T07:02:10;99413.59;;;15.66
15144;BMP180;7672;50.834;6.286;2023-03-19T07:04:37;99417.53;;;15.82
15144;BMP180;7672;50.834;6.286;2023-03-19T07:07:04;99407.91;;;15.93
15144;BMP180;7672;50.834;6.286;2023-03-19T07:09:31;99417.84;;;16.05
15144;BMP180;7672;50.834;6.286;2023-03-19T07:11:58;99425.25;;;16.15
15144;BMP180;7672;50.834;6.286;2023-03-19T07:14:25;99428.50;;;16.22
15144;BMP180;7672;50.834;6.286;2023-03-19T07:16:52;99419.03;;;16.30
15144;BMP180;7672;50.834;6.286;2023-03-19T07:19:19;99420.63;;;16.34
15144;BMP180;7672;50.834;6.286;2023-03-19T07:21:46;99432.44;;;16.38
15144;BMP180;7672;50.834;6.286;2023-03-19T07:24:13;99430.63;;;16.43
15144;BMP180;7672;50.834;6.286;2023-03-19T07:26:40;99429.66;;;16.47
15144;BMP180;7672;50.834;6.286;2023-03-19T07:29:08;99426.97;;;16.51
15144;BMP180;7672;50.834;6.286;2023-03-19T07:31:35;99424.34;;;16.56
15144;BMP180;7672;50.834;6.286;2023-03-19T07:34:02;99431.88;;;16.60
15144;BMP180;7672;50.834;6.286;2023-03-19T07:36:29;99425.84;;;16.64
15144;BMP180;7672;50.834;6.286;2023-03-19T07:38:57;99426.59;;;16.68
15144;BMP180;7672;50.834;6.286;2023-03-19T07:41:24;99422.25;;;16.71
15144;BMP180;7672;50.834;6.286;2023-03-19T07:43:51;99422.16;;;16.75
15144;BMP180;7672;50.834;6.286;2023-03-19T07:46:18;99427.06;;;16.83
15144;BMP180;7672;50.834;6.286;2023-03-19T07:48:45;99425.19;;;16.89
15144;BMP180;7672;50.834;6.286;2023-03-19T07:51:12;99432.44;;;17.04
15144;BMP180;7672;50.834;6.286;2023-03-19T07:53:39;99430.31;;;17.21
15144;BMP180;7672;50.834;6.286;2023-03-19T07:56:06;99430.59;;;17.41
15144;BMP180;7672;50.834;6.286;2023-03-19T07:58:32;99435.97;;;17.64
15144;BMP180;7672;50.834;6.286;2023-03-19T08:00:59;99431.69;;;17.92
15144;BMP180;7672;50.834;6.286;2023-03-19T08:03:26;99435.53;;;18.33
15144;BMP180;7672;50.834;6.286;2023-03-19T08:05:53;99439.13;;;18.81
15144;BMP180;7672;50.834;6.286;2023-03-19T08:08:20;99439.19;;;19.29
15144;BMP180;7672;50.834;6.286;2023-03-19T08:10:46;99431.44;;;19.77
15144;BMP180;7672;50.834;6.286;2023-03-19T08:13:16;99439.94;;;20.23
15144;BMP180;7672;50.834;6.286;2023-03-19T08:15:42;99442.81;;;20.79
15144;BMP180;7672;50.834;6.286;2023-03-19T08:18:09;99441.53;;;21.29
15144;BMP180;7672;50.834;6.286;2023-03-19T08:20:36;99445.88;;;21.67
15144;BMP180;7672;50.834;6.286;2023-03-19T08:23:03;99441.56;;;21.85
15144;BMP180;7672;50.834;6.286;2023-03-19T08:25:30;99444.50;;;21.96
15144;BMP180;7672;50.834;6.286;2023-03-19T08:27:59;99451.25;;;21.99
15144;BMP180;7672;50.834;6.286;2023-03-19T08:30:26;99445.41;;;21.95
15144;BMP180;7672;50.834;6.286;2023-03-19T08:32:54;99454.44;;;21.85
15144;BMP180;7672;50.834;6.286;2023-03-19T08:35:20;99453.19;;;21.75
15144;BMP180;7672;50.834;6.286;2023-03-19T08:37:47;99454.56;;;21.64
15144;BMP180;7672;50.834;6.286;2023-03-19T08:40:14;99454.38;;;21.49
15144;BMP180;7672;50.834;6.286;2023-03-19T08:42:41;99447.28;;;21.35
15144;BMP180;7672;50.834;6.286;2023-03-19T08:45:13;99447.06;;;21.20
15144;BMP180;7672;50.834;6.286;2023-03-19T08:47:41;99452.91;;;21.04
15144;BMP180;7672;50.834;6.286;2023-03-19T08:50:09;99467.31;;;20.88
15144;BMP180;7672;50.834;6.286;2023-03-19T08:52:37;99465.22;;;20.76
15144;BMP180;7672;50.834;6.286;2023-03-19T08:55:04;99454.50;;;20.65
15144;BMP180;7672;50.834;6.286;2023-03-19T08:57:33;99454.88;;;20.56
15144;BMP180;7672;50.834;6.286;2023-03-19T09:00:02;99468.03;;;20.48
15144;BMP180;7672;50.834;6.286;2023-03-19T09:02:31;99458.13;;;20.40
15144;BMP180;7672;50.834;6.286;2023-03-19T09:04:58;99461.88;;;20.31
15144;BMP180;7672;50.834;6.286;2023-03-19T09:07:24;99462.28;;;20.21
15144;BMP180;7672;50.834;6.286;2023-03-19T09:09:51;99465.06;;;20.15
15144;BMP180;7672;50.834;6.286;2023-03-19T09:12:18;99469.19;;;20.19
15144;BMP180;7672;50.834;6.286;2023-03-19T09:14:45;99469.41;;;20.36
15144;BMP180;7672;50.834;6.286;2023-03-19T09:17:11;99466.72;;;20.81
15144;BMP180;7672;50.834;6.286;2023-03-19T09:19:39;99458.63;;;21.50
15144;BMP180;7672;50.834;6.286;2023-03-19T09:22:07;99468.28;;;22.20
15144;BMP180;7672;50.834;6.286;2023-03-19T09:24:33;99468.97;;;22.77
15144;BMP180;7672;50.834;6.286;2023-03-19T09:27:00;99471.13;;;23.19
15144;BMP180;7672;50.834;6.286;2023-03-19T09:29:27;99468.69;;;23.50
15144;BMP180;7672;50.834;6.286;2023-03-19T09:31:54;99474.72;;;23.66
15144;BMP180;7672;50.834;6.286;2023-03-19T09:34:21;99478.88;;;23.68
15144;BMP180;7672;50.834;6.286;2023-03-19T09:36:47;99474.88;;;23.63
15144;BMP180;7672;50.834;6.286;2023-03-19T09:39:14;99480.56;;;23.53
15144;BMP180;7672;50.834;6.286;2023-03-19T09:44:34;99473.16;;;23.30
15144;BMP180;7672;50.834;6.286;2023-03-19T09:49:55;99488.22;;;22.87
15144;BMP180;7672;50.834;6.286;2023-03-19T09:52:29;99479.88;;;22.65
15144;BMP180;7672;50.834;6.286;2023-03-19T09:55:05;99485.91;;;22.47
15144;BMP180;7672;50.834;6.286;2023-03-19T09:57:37;99496.09;;;22.32
15144;BMP180;7672;50.834;6.286;2023-03-19T10:00:31;99497.09;;;22.09
15144;BMP180;7672;50.834;6.286;2023-03-19T10:06:25;99501.00;;;21.79
15144;BMP180;7672;50.834;6.286;2023-03-19T10:12:15;99497.06;;;21.73
15144;BMP180;7672;50.834;6.286;2023-03-19T10:15:24;99495.50;;;21.88
15144;BMP180;7672;50.834;6.286;2023-03-19T10:18:16;99490.91;;;22.50
15144;BMP180;7672;50.834;6.286;2023-03-19T10:21:32;99495.63;;;23.45
15144;BMP180;7672;50.834;6.286;2023-03-19T10:24:14;99496.72;;;24.05
15144;BMP180;7672;50.834;6.286;2023-03-19T10:26:45;99503.50;;;24.38
15144;BMP180;7672;50.834;6.286;2023-03-19T10:29:27;99512.91;;;24.55
15144;BMP180;7672;50.834;6.286;2023-03-19T10:32:16;99508.34;;;24.60
15144;BMP180;7672;50.834;6.286;2023-03-19T10:34:49;99515.84;;;24.64
15144;BMP180;7672;50.834;6.286;2023-03-19T10:37:25;99517.00;;;24.74
15144;BMP180;7672;50.834;6.286;2023-03-19T10:40:05;99507.44;;;24.90
15144;BMP180;7672;50.834;6.286;2023-03-19T10:43:06;99508.97;;;25.09
15144;BMP180;7672;50.834;6.286;2023-03-19T10:45:39;99508.53;;;25.31
15144;BMP180;7672;50.834;6.286;2023-03-19T10:48:16;99505.81;;;25.48
15144;BMP180;7672;50.834;6.286;2023-03-19T10:50:57;99507.50;;;25.62
15144;BMP180;7672;50.834;6.286;2023-03-19T10:53:38;99518.06;;;25.73
15144;BMP180;7672;50.834;6.286;2023-03-19T10:59:05;99507.03;;;25.98
15144;BMP180;7672;50.834;6.286;2023-03-19T11:01:39;99509.03;;;26.20
15144;BMP180;7672;50.834;6.286;2023-03-19T11:04:19;99510.25;;;26.43
15144;BMP180;7672;50.834;6.286;2023-03-19T11:07:21;99507.97;;;26.65
15144;BMP180;7672;50.834;6.286;2023-03-19T11:09:53;99512.50;;;26.87
15144;BMP180;7672;50.834;6.286;2023-03-19T11:12:34;99514.78;;;27.06
15144;BMP180;7672;50.834;6.286;2023-03-19T11:15:23;99509.72;;;27.29
15144;BMP180;7672;50.834;6.286;2023-03-19T11:18:06;99497.34;;;27.59
15144;BMP180;7672;50.834;6.286;2023-03-19T11:20:37;99514.25;;;28.02
15144;BMP180;7672;50.834;6.286;2023-03-19T11:23:15;99512.78;;;28.58
15144;BMP180;7672;50.834;6.286;2023-03-19T11:25:58;99511.50;;;29.10
15144;BMP180;7672;50.834;6.286;2023-03-19T11:28:30;99504.78;;;29.53
15144;BMP180;7672;50.834;6.286;2023-03-19T11:39:38;99504.81;;;30.29
15144;BMP180;7672;50.834;6.286;2023-03-19T11:42:34;99499.13;;;30.13
15144;BMP180;7672;50.834;6.286;2023-03-19T11:45:29;99501.88;;;30.01
15144;BMP180;7672;50.834;6.286;2023-03-19T11:49:11;99502.59;;;29.92
15144;BMP180;7672;50.834;6.286;2023-03-19T11:55:09;99498.53;;;30.32
15144;BMP180;7672;50.834;6.286;2023-03-19T11:58:35;99500.53;;;30.50
15144;BMP180;7672;50.834;6.286;2023-03-19T12:01:34;99498.16;;;30.58
15144;BMP180;7672;50.834;6.286;2023-03-19T12:07:28;99500.88;;;30.35
15144;BMP180;7672;50.834;6.286;2023-03-19T12:13:33;99495.56;;;29.71
15144;BMP180;7672;50.834;6.286;2023-03-19T12:31:45;99505.78;;;26.59
15144;BMP180;7672;50.834;6.286;2023-03-19T12:34:35;99509.44;;;26.15
15144;BMP180;7672;50.834;6.286;2023-03-19T12:37:22;99506.78;;;25.74
15144;BMP180;7672;50.834;6.286;2023-03-19T12:43:06;99513.53;;;25.04
15144;BMP180;7672;50.834;6.286;2023-03-19T12:45:47;99513.13;;;24.81
15144;BMP180;7672;50.834;6.286;2023-03-19T12:48:55;99510.91;;;24.60
15144;BMP180;7672;50.834;6.286;2023-03-19T12:51:34;99505.66;;;24.46
15144;BMP180;7672;50.834;6.286;2023-03-19T12:54:44;99504.72;;;24.31
15144;BMP180;7672;50.834;6.286;2023-03-19T12:58:11;99500.66;;;24.27
15144;BMP180;7672;50.834;6.286;2023-03-19T13:01:06;99503.91;;;24.31
15144;BMP180;7672;50.834;6.286;2023-03-19T13:04:24;99513.69;;;24.41
15144;BMP180;7672;50.834;6.286;2023-03-19T13:07:15;99516.16;;;24.58
15144;BMP180;7672;50.834;6.286;2023-03-19T13:10:04;99518.09;;;24.70
15144;BMP180;7672;50.834;6.286;2023-03-19T13:12:35;99518.97;;;24.85
15144;BMP180;7672;50.834;6.286;2023-03-19T13:15:30;99510.63;;;24.95
15144;BMP180;7672;50.834;6.286;2023-03-19T13:23:42;99502.31;;;25.62
15144;BMP180;7672;50.834;6.286;2023-03-19T13:26:13;99506.28;;;25.54
15144;BMP180;7672;50.834;6.286;2023-03-19T13:31:34;99504.69;;;25.38
15144;BMP180;7672;50.834;6.286;2023-03-19T13:36:51;99510.97;;;25.34
15144;BMP180;7672;50.834;6.286;2023-03-19T13:39:24;99514.44;;;25.33
15144;BMP180;7672;50.834;6.286;2023-03-19T13:42:35;99512.06;;;25.30
15144;BMP180;7672;50.834;6.286;2023-03-19T13:45:36;99502.53;;;25.30
15144;BMP180;7672;50.834;6.286;2023-03-19T13:53:57;99504.34;;;25.28
15144;BMP180;7672;50.834;6.286;2023-03-19T13:56:34;99499.47;;;25.24
15144;BMP180;7672;50.834;6.286;2023-03-19T13:59:31;99498.91;;;25.19
15144;BMP180;7672;50.834;6.286;2023-03-19T14:02:00;99507.75;;;25.15
15144;BMP180;7672;50.834;6.286;2023-03-19T14:04:33;99503.78;;;25.09
15144;BMP180;7672;50.834;6.286;2023-03-19T14:07:16;99508.59;;;25.00
15144;BMP180;7672;50.834;6.286;2023-03-19T14:10:01;99514.28;;;24.91
15144;BMP180;7672;50.834;6.286;2023-03-19T14:12:41;99515.91;;;24.78
15144;BMP180;7672;50.834;6.286;2023-03-19T14:17:44;99523.94;;;24.58
15144;BMP180;7672;50.834;6.286;2023-03-19T14:22:54;99521.59;;;24.38
15144;BMP180;7672;50.834;6.286;2023-03-19T14:25:25;99522.91;;;24.30
15144;BMP180;7672;50.834;6.286;2023-03-19T14:28:08;99513.81;;;24.23
15144;BMP180;7672;50.834;6.286;2023-03-19T14:30:47;99523.63;;;24.17
15144;BMP180;7672;50.834;6.286;2023-03-19T14:33:25;99528.13;;;24.13
15144;BMP180;7672;50.834;6.286;2023-03-19T14:35:56;99524.88;;;24.10
15144;BMP180;7672;50.834;6.286;2023-03-19T14:38:51;99532.03;;;24.05
15144;BMP180;7672;50.834;6.286;2023-03-19T14:41:22;99530.53;;;24.01
15144;BMP180;7672;50.834;6.286;2023-03-19T14:44:19;99535.69;;;24.01
15144;BMP180;7672;50.834;6.286;2023-03-19T14:55:15;99545.91;;;23.87
15144;BMP180;7672;50.834;6.286;2023-03-19T14:57:43;99547.88;;;23.82
15144;BMP180;7672;50.834;6.286;2023-03-19T15:00:17;99541.53;;;23.72
15144;BMP180;7672;50.834;6.286;2023-03-19T15:02:49;99553.28;;;23.61
15144;BMP180;7672;50.834;6.286;2023-03-19T15:05:24;99555.78;;;23.45
15144;BMP180;7672;50.834;6.286;2023-03-19T15:07:56;99559.25;;;23.27
15144;BMP180;7672;50.834;6.286;2023-03-19T15:10:28;99558.50;;;23.08
15144;BMP180;7672;50.834;6.286;2023-03-19T15:18:12;99559.53;;;22.51
15144;BMP180;7672;50.834;6.286;2023-03-19T15:20:46;99556.91;;;22.34
15144;BMP180;7672;50.834;6.286;2023-03-19T15:23:24;99562.78;;;22.18
15144;BMP180;7672;50.834;6.286;2023-03-19T15:26:02;99552.44;;;21.99
15144;BMP180;7672;50.834;6.286;2023-03-19T15:28:32;99552.22;;;21.85
15144;BMP180;7672;50.834;6.286;2023-03-19T15:31:11;99553.72;;;21.71
15144;BMP180;7672;50.834;6.286;2023-03-19T15:33:56;99554.19;;;21.61
15144;BMP180;7672;50.834;6.286;2023-03-19T15:36:33;99566.50;;;21.53
15144;BMP180;7672;50.834;6.286;2023-03-19T15:39:05;99567.56;;;21.47
15144;BMP180;7672;50.834;6.286;2023-03-19T15:41:44;99567.88;;;21.40
15144;BMP180;7672;50.834;6.286;2023-03-19T15:44:37;99574.22;;;21.31
15144;BMP180;7672;50.834;6.286;2023-03-19T15:47:14;99576.13;;;21.28
15144;BMP180;7672;50.834;6.286;2023-03-19T15:49:51;99586.56;;;21.23
15144;BMP180;7672;50.834;6.286;2023-03-19T15:52:20;99584.22;;;21.19
15144;BMP180;7672;50.834;6.286;2023-03-19T15:54:47;99592.91;;;21.15
15144;BMP180;7672;50.834;6.286;2023-03-19T15:57:16;99593.19;;;21.09
15144;BMP180;7672;50.834;6.286;2023-03-19T15:59:44;99591.63;;;21.05
15144;BMP180;7672;50.834;6.286;2023-03-19T16:02:28;99603.91;;;20.97
15144;BMP180;7672;50.834;6.286;2023-03-19T16:04:57;99601.53;;;20.93
15144;BMP180;7672;50.834;6.286;2023-03-19T16:07:51;99600.88;;;20.88
15144;BMP180;7672;50.834;6.286;2023-03-19T16:10:39;99598.47;;;20.83
15144;BMP180;7672;50.834;6.286;2023-03-19T16:16:16;99597.88;;;20.77
15144;BMP180;7672;50.834;6.286;2023-03-19T16:18:56;99601.47;;;20.73
15144;BMP180;7672;50.834;6.286;2023-03-19T16:21:40;99609.25;;;20.70
15144;BMP180;7672;50.834;6.286;2023-03-19T16:24:13;99598.25;;;20.66
15144;BMP180;7672;50.834;6.286;2023-03-19T16:26:46;99602.66;;;20.63
15144;BMP180;7672;50.834;6.286;2023-03-19T16:29:37;99604.69;;;20.55
15144;BMP180;7672;50.834;6.286;2023-03-19T16:34:46;99599.16;;;20.43
15144;BMP180;7672;50.834;6.286;2023-03-19T16:37:41;99601.31;;;20.32